createdAt,value
2019-05-29T00:00:57.106Z,0.00
2019-05-29T00:01:57.093Z,0.00
2019-05-29T00:02:57.048Z,0.00
2019-05-29T00:03:57.025Z,0.00
2019-05-29T00:04:57.012Z,0.00
2019-05-29T00:05:57.001Z,0.00
2019-05-29T00:06:57.005Z,0.00
2019-05-29T00:07:56.970Z,0.00
2019-05-29T00:08:56.946Z,0.00
2019-05-29T00:09:56.950Z,0.00
2019-05-29T00:10:56.918Z,0.00
2019-05-29T00:11:56.931Z,0.00
2019-05-29T00:12:56.881Z,0.00
2019-05-29T00:13:56.884Z,0.00
2019-05-29T00:14:56.849Z,0.00
2019-05-29T00:15:56.857Z,0.00
2019-05-29T00:16:56.875Z,0.00
2019-05-29T00:17:56.825Z,0.00
2019-05-29T00:18:58.349Z,0.00
2019-05-29T00:19:56.773Z,0.00
2019-05-29T00:20:56.756Z,0.00
2019-05-29T00:21:56.745Z,0.00
2019-05-29T00:22:56.737Z,0.00
2019-05-29T00:23:56.707Z,0.00
2019-05-29T00:24:56.691Z,0.00
2019-05-29T00:25:56.675Z,0.00
2019-05-29T00:26:56.676Z,0.00
2019-05-29T00:27:56.769Z,0.00
2019-05-29T00:28:56.634Z,0.00
2019-05-29T00:29:56.604Z,0.00
2019-05-29T00:30:56.596Z,0.00
2019-05-29T00:31:56.585Z,0.00
2019-05-29T00:32:56.565Z,0.00
2019-05-29T00:33:56.578Z,0.00
2019-05-29T00:34:56.523Z,0.00
2019-05-29T00:35:56.521Z,0.00
2019-05-29T00:36:56.489Z,0.00
2019-05-29T00:37:56.482Z,0.00
2019-05-29T00:38:56.595Z,0.00
2019-05-29T00:39:56.440Z,0.00
2019-05-29T00:40:56.500Z,0.00
2019-05-29T00:41:56.418Z,0.00
2019-05-29T00:42:56.393Z,0.00
2019-05-29T00:43:56.374Z,0.00
2019-05-29T00:44:56.390Z,0.00
2019-05-29T00:45:56.347Z,0.00
2019-05-29T00:46:56.323Z,0.00
2019-05-29T00:47:56.319Z,0.00
2019-05-29T00:48:56.295Z,0.00
2019-05-29T00:49:56.344Z,0.00
2019-05-29T00:50:56.278Z,0.00
2019-05-29T00:51:56.249Z,0.00
2019-05-29T00:52:56.238Z,0.00
2019-05-29T00:53:56.211Z,0.00
2019-05-29T00:54:56.195Z,0.00
2019-05-29T00:55:56.195Z,0.00
2019-05-29T00:56:56.162Z,0.00
2019-05-29T00:57:56.142Z,0.00
2019-05-29T00:58:56.126Z,0.00
2019-05-29T00:59:56.111Z,0.00
2019-05-29T01:00:56.165Z,0.00
2019-05-29T01:01:56.087Z,0.00
2019-05-29T01:02:56.074Z,0.00
2019-05-29T01:03:56.045Z,0.00
2019-05-29T01:04:56.039Z,0.00
2019-05-29T01:05:56.015Z,0.00
2019-05-29T01:06:56.025Z,0.00
2019-05-29T01:07:55.979Z,0.00
2019-05-29T01:08:55.961Z,0.00
2019-05-29T01:09:55.956Z,0.00
2019-05-29T01:10:55.936Z,0.00
2019-05-29T01:11:55.986Z,0.00
2019-05-29T01:12:56.005Z,0.00
2019-05-29T01:13:55.888Z,0.00
2019-05-29T01:14:55.873Z,0.00
2019-05-29T01:15:55.849Z,0.00
2019-05-29T01:16:55.836Z,0.00
2019-05-29T01:17:55.818Z,0.00
2019-05-29T01:18:55.807Z,0.00
2019-05-29T01:19:55.787Z,0.00
2019-05-29T01:20:55.765Z,0.00
2019-05-29T01:21:55.761Z,0.00
2019-05-29T01:22:55.745Z,0.00
2019-05-29T01:23:55.719Z,0.00
2019-05-29T01:24:55.710Z,0.00
2019-05-29T01:25:55.681Z,0.00
2019-05-29T01:26:55.667Z,0.00
2019-05-29T01:27:55.685Z,0.00
2019-05-29T01:28:55.631Z,0.00
2019-05-29T01:29:55.626Z,0.00
2019-05-29T01:30:55.611Z,0.00
2019-05-29T01:31:55.603Z,0.00
2019-05-29T01:32:55.592Z,0.00
2019-05-29T01:33:55.549Z,0.00
2019-05-29T01:34:55.533Z,0.00
2019-05-29T01:35:55.516Z,0.00
2019-05-29T01:36:55.524Z,0.00
2019-05-29T01:37:55.509Z,0.00
2019-05-29T01:38:55.468Z,0.00
2019-05-29T01:39:55.483Z,0.00
2019-05-29T01:40:55.438Z,0.00
2019-05-29T01:41:55.421Z,0.00
2019-05-29T01:42:55.396Z,0.00
2019-05-29T01:43:55.435Z,0.00
2019-05-29T01:45:07.208Z,0.00
2019-05-29T01:45:55.353Z,0.00
2019-05-29T01:46:55.343Z,0.00
2019-05-29T01:47:55.315Z,0.00
2019-05-29T01:48:55.311Z,0.00
2019-05-29T01:49:55.317Z,0.00
2019-05-29T01:50:55.263Z,0.00
2019-05-29T01:51:55.254Z,0.00
2019-05-29T01:52:55.233Z,0.00
2019-05-29T01:53:55.216Z,0.00
2019-05-29T01:54:55.237Z,0.00
2019-05-29T01:55:55.184Z,0.00
2019-05-29T01:56:55.164Z,0.00
2019-05-29T01:57:55.156Z,0.00
2019-05-29T01:58:55.169Z,0.00
2019-05-29T01:59:55.116Z,0.00
2019-05-29T02:00:55.109Z,0.00
2019-05-29T02:01:55.121Z,0.00
2019-05-29T02:02:55.076Z,0.00
2019-05-29T02:03:55.053Z,0.00
2019-05-29T02:04:55.043Z,0.00
2019-05-29T02:05:55.025Z,0.00
2019-05-29T02:06:55.041Z,0.00
2019-05-29T02:07:54.989Z,0.00
2019-05-29T02:08:54.976Z,0.00
2019-05-29T02:09:54.957Z,0.00
2019-05-29T02:10:54.940Z,0.00
2019-05-29T02:11:54.924Z,0.00
2019-05-29T02:12:54.926Z,0.00
2019-05-29T02:13:54.892Z,0.00
2019-05-29T02:14:54.898Z,0.00
2019-05-29T02:15:54.857Z,0.00
2019-05-29T02:16:54.972Z,0.00
2019-05-29T02:17:54.837Z,0.00
2019-05-29T02:18:54.829Z,0.00
2019-05-29T02:19:54.790Z,0.00
2019-05-29T02:20:54.794Z,0.00
2019-05-29T02:21:54.758Z,0.00
2019-05-29T02:22:54.747Z,0.00
2019-05-29T02:23:54.734Z,0.00
2019-05-29T02:24:54.746Z,0.00
2019-05-29T02:25:54.699Z,0.00
2019-05-29T02:26:54.684Z,0.00
2019-05-29T02:27:54.661Z,0.00
2019-05-29T02:28:54.640Z,0.00
2019-05-29T02:29:54.655Z,0.00
2019-05-29T02:30:54.611Z,0.00
2019-05-29T02:31:54.594Z,0.00
2019-05-29T02:32:54.580Z,0.00
2019-05-29T02:33:54.559Z,0.00
2019-05-29T02:34:54.565Z,0.00
2019-05-29T02:35:54.523Z,0.00
2019-05-29T02:36:54.506Z,0.00
2019-05-29T02:37:54.502Z,0.00
2019-05-29T02:38:54.491Z,0.00
2019-05-29T02:39:54.489Z,0.00
2019-05-29T02:40:54.505Z,0.00
2019-05-29T02:41:54.435Z,0.00
2019-05-29T02:42:54.434Z,0.00
2019-05-29T02:43:54.395Z,4.00
2019-05-29T02:44:54.371Z,4.00
2019-05-29T02:45:55.310Z,0.00
2019-05-29T02:46:54.373Z,0.00
2019-05-29T02:47:54.358Z,4.00
2019-05-29T02:48:54.306Z,4.00
2019-05-29T02:49:54.301Z,0.00
2019-05-29T02:50:54.286Z,4.00
2019-05-29T02:51:54.419Z,4.00
2019-05-29T02:52:54.242Z,4.00
2019-05-29T02:53:54.256Z,4.00
2019-05-29T02:54:54.215Z,4.00
2019-05-29T02:55:54.199Z,4.00
2019-05-29T02:56:54.177Z,8.00
2019-05-29T02:57:54.204Z,8.00
2019-05-29T02:58:54.138Z,8.00
2019-05-29T02:59:54.124Z,8.00
2019-05-29T03:00:54.107Z,8.00
2019-05-29T03:01:54.113Z,12.00
2019-05-29T03:02:54.102Z,12.00
2019-05-29T03:03:54.055Z,12.00
2019-05-29T03:04:54.032Z,16.00
2019-05-29T03:05:54.027Z,16.00
2019-05-29T03:06:54.013Z,20.00
2019-05-29T03:07:54.028Z,20.00
2019-05-29T03:08:53.981Z,20.00
2019-05-29T03:09:53.992Z,24.00
2019-05-29T03:10:53.947Z,28.00
2019-05-29T03:11:53.914Z,28.00
2019-05-29T03:12:53.903Z,28.00
2019-05-29T03:13:54.031Z,32.00
2019-05-29T03:14:53.860Z,36.00
2019-05-29T03:16:09.783Z,40.00
2019-05-29T03:16:53.835Z,44.00
2019-05-29T03:17:53.822Z,48.00
2019-05-29T03:18:53.794Z,48.00
2019-05-29T03:19:53.801Z,56.00
2019-05-29T03:20:53.766Z,56.00
2019-05-29T03:21:53.765Z,60.00
2019-05-29T03:22:53.735Z,68.00
2019-05-29T03:23:53.718Z,68.00
2019-05-29T03:24:53.849Z,72.00
2019-05-29T03:25:53.678Z,76.00
2019-05-29T03:26:53.659Z,84.00
2019-05-29T03:27:53.642Z,88.00
2019-05-29T03:28:53.632Z,88.00
2019-05-29T03:29:53.606Z,96.00
2019-05-29T03:30:53.635Z,100.00
2019-05-29T03:31:53.578Z,104.00
2019-05-29T03:32:53.554Z,112.00
2019-05-29T03:33:53.563Z,112.00
2019-05-29T03:34:53.531Z,120.00
2019-05-29T03:35:53.532Z,124.00
2019-05-29T03:36:53.493Z,128.00
2019-05-29T03:37:53.474Z,136.00
2019-05-29T03:38:53.457Z,140.00
2019-05-29T03:39:53.437Z,144.00
2019-05-29T03:40:53.446Z,148.00
2019-05-29T03:41:53.399Z,156.00
2019-05-29T03:42:53.410Z,160.00
2019-05-29T03:43:53.360Z,164.00
2019-05-29T03:44:53.375Z,168.00
2019-05-29T03:45:53.333Z,176.00
2019-05-29T03:46:53.327Z,180.00
2019-05-29T03:47:53.335Z,180.00
2019-05-29T03:48:53.281Z,188.00
2019-05-29T03:49:53.271Z,192.00
2019-05-29T03:50:53.247Z,196.00
2019-05-29T03:51:53.299Z,204.00
2019-05-29T03:52:53.207Z,208.00
2019-05-29T03:53:53.206Z,212.00
2019-05-29T03:54:53.179Z,216.00
2019-05-29T03:55:53.170Z,220.00
2019-05-29T03:56:53.139Z,228.00
2019-05-29T03:57:53.158Z,228.00
2019-05-29T03:58:53.105Z,232.00
2019-05-29T03:59:53.101Z,240.00
2019-05-29T04:00:53.088Z,240.00
2019-05-29T04:01:53.053Z,248.00
2019-05-29T04:02:53.069Z,252.00
2019-05-29T04:03:53.021Z,256.00
2019-05-29T04:04:53.142Z,260.00
2019-05-29T04:05:52.987Z,264.00
2019-05-29T04:06:52.976Z,268.00
2019-05-29T04:07:52.951Z,272.00
2019-05-29T04:08:52.933Z,280.00
2019-05-29T04:09:52.926Z,280.00
2019-05-29T04:10:52.928Z,284.00
2019-05-29T04:11:52.944Z,288.00
2019-05-29T04:12:52.866Z,292.00
2019-05-29T04:13:52.842Z,296.00
2019-05-29T04:14:52.828Z,300.00
2019-05-29T04:15:52.915Z,304.00
2019-05-29T04:16:59.697Z,308.00
2019-05-29T04:17:52.817Z,312.00
2019-05-29T04:18:52.766Z,312.00
2019-05-29T04:19:52.764Z,316.00
2019-05-29T04:20:52.723Z,320.00
2019-05-29T04:21:52.724Z,324.00
2019-05-29T04:22:52.720Z,328.00
2019-05-29T04:23:52.670Z,332.00
2019-05-29T04:24:52.655Z,336.00
2019-05-29T04:25:52.675Z,340.00
2019-05-29T04:26:52.626Z,340.00
2019-05-29T04:27:52.624Z,348.00
2019-05-29T04:28:52.604Z,348.00
2019-05-29T04:29:52.578Z,356.00
2019-05-29T04:30:52.546Z,356.00
2019-05-29T04:31:52.539Z,360.00
2019-05-29T04:32:52.564Z,364.00
2019-05-29T04:33:52.494Z,368.00
2019-05-29T04:34:52.481Z,372.00
2019-05-29T04:35:52.470Z,376.00
2019-05-29T04:36:52.444Z,380.00
2019-05-29T04:37:52.573Z,380.00
2019-05-29T04:38:52.416Z,380.00
2019-05-29T04:39:52.397Z,384.00
2019-05-29T04:40:52.376Z,388.00
2019-05-29T04:41:52.362Z,392.00
2019-05-29T04:42:52.344Z,396.00
2019-05-29T04:43:56.735Z,396.00
2019-05-29T04:44:52.321Z,400.00
2019-05-29T04:45:52.297Z,404.00
2019-05-29T04:47:09.458Z,408.00
2019-05-29T04:47:52.310Z,412.00
2019-05-29T04:48:52.244Z,412.00
2019-05-29T04:49:52.219Z,416.00
2019-05-29T04:50:52.206Z,416.00
2019-05-29T04:51:52.183Z,420.00
2019-05-29T04:52:52.181Z,420.00
2019-05-29T04:53:52.182Z,424.00
2019-05-29T04:54:52.137Z,432.00
2019-05-29T04:55:52.116Z,436.00
2019-05-29T04:56:52.120Z,436.00
2019-05-29T04:57:52.103Z,440.00
2019-05-29T04:58:52.110Z,440.00
2019-05-29T04:59:52.072Z,444.00
2019-05-29T05:00:59.163Z,448.00
2019-05-29T05:01:52.090Z,448.00
2019-05-29T05:02:52.019Z,452.00
2019-05-29T05:03:52.006Z,452.00
2019-05-29T05:04:51.994Z,460.00
2019-05-29T05:05:51.999Z,460.00
2019-05-29T05:06:51.954Z,464.00
2019-05-29T05:07:51.936Z,464.00
2019-05-29T05:08:51.922Z,468.00
2019-05-29T05:09:51.900Z,472.00
2019-05-29T05:10:51.921Z,472.00
2019-05-29T05:11:51.864Z,476.00
2019-05-29T05:12:51.868Z,476.00
2019-05-29T05:13:51.830Z,476.00
2019-05-29T05:14:51.818Z,480.00
2019-05-29T05:15:51.796Z,480.00
2019-05-29T05:16:51.793Z,484.00
2019-05-29T05:17:51.783Z,484.00
2019-05-29T05:18:51.750Z,488.00
2019-05-29T05:19:51.732Z,492.00
2019-05-29T05:20:51.714Z,492.00
2019-05-29T05:21:51.828Z,492.00
2019-05-29T05:22:51.675Z,500.00
2019-05-29T05:23:51.656Z,500.00
2019-05-29T05:24:51.646Z,504.00
2019-05-29T05:25:51.625Z,504.00
2019-05-29T05:26:51.622Z,508.00
2019-05-29T05:27:51.730Z,508.00
2019-05-29T05:28:51.598Z,512.00
2019-05-29T05:29:51.559Z,516.00
2019-05-29T05:30:51.543Z,516.00
2019-05-29T05:31:51.526Z,516.00
2019-05-29T05:32:51.509Z,520.00
2019-05-29T05:33:51.506Z,520.00
2019-05-29T05:34:51.513Z,524.00
2019-05-29T05:35:51.479Z,528.00
2019-05-29T05:36:51.442Z,524.00
2019-05-29T05:37:51.436Z,528.00
2019-05-29T05:38:51.406Z,528.00
2019-05-29T05:39:51.454Z,532.00
2019-05-29T05:40:51.369Z,532.00
2019-05-29T05:41:51.349Z,532.00
2019-05-29T05:42:51.339Z,540.00
2019-05-29T05:43:51.334Z,540.00
2019-05-29T05:44:51.311Z,540.00
2019-05-29T05:45:51.357Z,544.00
2019-05-29T05:46:51.278Z,548.00
2019-05-29T05:47:57.275Z,552.00
2019-05-29T05:48:51.237Z,556.00
2019-05-29T05:49:51.228Z,556.00
2019-05-29T05:50:51.274Z,564.00
2019-05-29T05:51:51.191Z,564.00
2019-05-29T05:52:51.190Z,568.00
2019-05-29T05:53:51.155Z,568.00
2019-05-29T05:54:51.144Z,572.00
2019-05-29T05:55:51.129Z,576.00
2019-05-29T05:56:53.533Z,580.00
2019-05-29T05:57:51.089Z,580.00
2019-05-29T05:58:51.090Z,588.00
2019-05-29T05:59:51.063Z,588.00
2019-05-29T06:00:51.043Z,588.00
2019-05-29T06:01:51.038Z,596.00
2019-05-29T06:02:52.256Z,600.00
2019-05-29T06:03:50.996Z,600.00
2019-05-29T06:04:50.973Z,604.00
2019-05-29T06:05:50.965Z,604.00
2019-05-29T06:06:50.985Z,608.00
2019-05-29T06:07:50.955Z,608.00
2019-05-29T06:08:50.910Z,616.00
2019-05-29T06:09:50.909Z,616.00
2019-05-29T06:10:51.385Z,616.00
2019-05-29T06:11:50.872Z,616.00
2019-05-29T06:12:50.887Z,620.00
2019-05-29T06:13:50.847Z,620.00
2019-05-29T06:14:50.823Z,616.00
2019-05-29T06:15:50.794Z,620.00
2019-05-29T06:16:50.835Z,616.00
2019-05-29T06:18:05.049Z,624.00
2019-05-29T06:18:50.753Z,624.00
2019-05-29T06:19:50.765Z,628.00
2019-05-29T06:20:50.725Z,632.00
2019-05-29T06:21:50.696Z,632.00
2019-05-29T06:22:50.688Z,636.00
2019-05-29T06:23:50.662Z,640.00
2019-05-29T06:24:50.789Z,648.00
2019-05-29T06:25:50.635Z,660.00
2019-05-29T06:26:50.621Z,672.00
2019-05-29T06:27:50.620Z,688.00
2019-05-29T06:28:50.586Z,700.00
2019-05-29T06:29:50.573Z,708.00
2019-05-29T06:30:50.590Z,708.00
2019-05-29T06:31:50.545Z,704.00
2019-05-29T06:32:50.517Z,696.00
2019-05-29T06:33:50.513Z,696.00
2019-05-29T06:34:50.539Z,696.00
2019-05-29T06:35:50.474Z,700.00
2019-05-29T06:36:50.464Z,708.00
2019-05-29T06:37:50.451Z,716.00
2019-05-29T06:38:50.428Z,716.00
2019-05-29T06:39:50.408Z,720.00
2019-05-29T06:40:50.431Z,728.00
2019-05-29T06:41:50.392Z,756.00
2019-05-29T06:42:50.371Z,756.00
2019-05-29T06:43:50.354Z,756.00
2019-05-29T06:44:50.334Z,732.00
2019-05-29T06:45:50.354Z,728.00
2019-05-29T06:46:50.306Z,720.00
2019-05-29T06:47:50.290Z,720.00
2019-05-29T06:48:59.626Z,724.00
2019-05-29T06:49:50.267Z,736.00
2019-05-29T06:50:50.268Z,744.00
2019-05-29T06:51:50.221Z,748.00
2019-05-29T06:52:50.212Z,736.00
2019-05-29T06:53:50.201Z,736.00
2019-05-29T06:54:50.186Z,720.00
2019-05-29T06:55:53.717Z,708.00
2019-05-29T06:56:50.152Z,700.00
2019-05-29T06:57:50.142Z,700.00
2019-05-29T06:58:50.148Z,704.00
2019-05-29T06:59:50.125Z,708.00
2019-05-29T07:00:50.143Z,708.00
2019-05-29T07:01:50.081Z,712.00
2019-05-29T07:02:50.058Z,720.00
2019-05-29T07:03:50.040Z,724.00
2019-05-29T07:04:50.029Z,736.00
2019-05-29T07:05:52.527Z,752.00
2019-05-29T07:06:50.142Z,764.00
2019-05-29T07:07:49.974Z,756.00
2019-05-29T07:08:50.259Z,756.00
2019-05-29T07:09:49.951Z,740.00
2019-05-29T07:10:49.933Z,680.00
2019-05-29T07:11:49.913Z,760.00
2019-05-29T07:12:49.926Z,768.00
2019-05-29T07:13:50.769Z,780.00
2019-05-29T07:14:49.871Z,796.00
2019-05-29T07:15:49.850Z,816.00
2019-05-29T07:16:56.038Z,808.00
2019-05-29T07:17:49.969Z,812.00
2019-05-29T07:19:23.990Z,828.00
2019-05-29T07:20:02.862Z,820.00
2019-05-29T07:20:49.782Z,832.00
2019-05-29T07:21:49.758Z,844.00
2019-05-29T07:22:49.746Z,828.00
2019-05-29T07:23:49.748Z,812.00
2019-05-29T07:24:49.727Z,800.00
2019-05-29T07:25:49.708Z,804.00
2019-05-29T07:26:49.686Z,812.00
2019-05-29T07:27:49.695Z,812.00
2019-05-29T07:29:07.390Z,816.00
2019-05-29T07:29:49.643Z,824.00
2019-05-29T07:31:00.649Z,852.00
2019-05-29T07:31:49.610Z,860.00
2019-05-29T07:32:56.917Z,880.00
2019-05-29T07:33:49.589Z,884.00
2019-05-29T07:35:02.289Z,904.00
2019-05-29T07:35:49.593Z,900.00
2019-05-29T07:36:49.543Z,908.00
2019-05-29T07:37:49.531Z,904.00
2019-05-29T07:39:01.994Z,896.00
2019-05-29T07:39:49.490Z,896.00
2019-05-29T07:40:50.244Z,888.00
2019-05-29T07:41:49.457Z,912.00
2019-05-29T07:42:55.121Z,928.00
2019-05-29T07:43:49.431Z,928.00
2019-05-29T07:44:49.417Z,920.00
2019-05-29T07:45:49.423Z,928.00
2019-05-29T07:46:49.389Z,928.00
2019-05-29T07:47:49.378Z,928.00
2019-05-29T07:48:50.330Z,944.00
2019-05-29T07:49:50.303Z,960.00
2019-05-29T07:50:49.381Z,972.00
2019-05-29T07:51:49.317Z,988.00
2019-05-29T07:52:49.412Z,1008.00
2019-05-29T07:53:49.290Z,1092.00
2019-05-29T07:54:50.039Z,1404.00
2019-05-29T07:55:49.296Z,1796.00
2019-05-29T07:56:49.251Z,1964.00
2019-05-29T07:57:49.224Z,1724.00
2019-05-29T07:59:01.796Z,1512.00
2019-05-29T07:59:49.203Z,1432.00
2019-05-29T08:01:09.317Z,1456.00
2019-05-29T08:01:49.322Z,1440.00
2019-05-29T08:02:49.526Z,1240.00
2019-05-29T08:03:49.686Z,1112.00
2019-05-29T08:04:49.812Z,1208.00
2019-05-29T08:05:51.505Z,1540.00
2019-05-29T08:06:54.206Z,1848.00
2019-05-29T08:07:49.661Z,1740.00
2019-05-29T08:08:49.525Z,1548.00
2019-05-29T08:09:49.837Z,1564.00
2019-05-29T08:10:49.754Z,1332.00
2019-05-29T08:11:50.137Z,1248.00
2019-05-29T08:12:54.891Z,1224.00
2019-05-29T08:13:50.020Z,1044.00
2019-05-29T08:14:50.170Z,1404.00
2019-05-29T08:15:57.484Z,1440.00
2019-05-29T08:16:50.034Z,996.00
2019-05-29T08:17:50.134Z,968.00
2019-05-29T08:18:52.483Z,1028.00
2019-05-29T08:20:02.964Z,1296.00
2019-05-29T08:20:48.886Z,1432.00
2019-05-29T08:21:48.869Z,1380.00
2019-05-29T08:22:48.885Z,1576.00
2019-05-29T08:23:48.876Z,2068.00
2019-05-29T08:24:49.449Z,1952.00
2019-05-29T08:25:49.632Z,1828.00
2019-05-29T08:26:48.988Z,1616.00
2019-05-29T08:27:49.036Z,1244.00
2019-05-29T08:28:48.921Z,1232.00
2019-05-29T08:29:48.887Z,1664.00
2019-05-29T08:30:54.106Z,2336.00
2019-05-29T08:31:48.996Z,2152.00
2019-05-29T08:32:49.229Z,2088.00
2019-05-29T08:33:48.985Z,2196.00
2019-05-29T08:34:49.067Z,2440.00
2019-05-29T08:35:57.712Z,2780.00
2019-05-29T08:37:04.787Z,3064.00
2019-05-29T08:37:49.121Z,3080.00
2019-05-29T08:38:49.302Z,3260.00
2019-05-29T08:39:49.561Z,3036.00
2019-05-29T08:40:49.550Z,2528.00
2019-05-29T08:42:19.330Z,2356.00
2019-05-29T08:42:49.443Z,2188.00
2019-05-29T08:43:48.564Z,2124.00
2019-05-29T08:44:50.072Z,2024.00
2019-05-29T08:45:49.685Z,2184.00
2019-05-29T08:47:08.214Z,2440.00
2019-05-29T08:47:49.675Z,3108.00
2019-05-29T08:48:48.495Z,2916.00
2019-05-29T08:49:52.475Z,3496.00
2019-05-29T08:50:48.463Z,7064.00
2019-05-29T08:51:48.459Z,11052.00
2019-05-29T08:52:48.454Z,9032.00
2019-05-29T08:53:48.794Z,9596.00
2019-05-29T08:54:48.422Z,10100.00
2019-05-29T08:55:48.991Z,9856.00
2019-05-29T08:56:48.458Z,9052.00
2019-05-29T08:57:48.524Z,5548.00
2019-05-29T08:58:48.458Z,3896.00
2019-05-29T08:59:48.501Z,2580.00
2019-05-29T09:00:51.866Z,7316.00
2019-05-29T09:01:50.419Z,2456.00
2019-05-29T09:02:49.200Z,6640.00
2019-05-29T09:03:48.907Z,5892.00
2019-05-29T09:04:49.859Z,9276.00
2019-05-29T09:06:05.157Z,4364.00
2019-05-29T09:06:49.215Z,9684.00
2019-05-29T09:07:49.807Z,7372.00
2019-05-29T09:08:49.920Z,9072.00
2019-05-29T09:09:49.104Z,8688.00
2019-05-29T09:10:49.427Z,8648.00
2019-05-29T09:11:49.926Z,8076.00
2019-05-29T09:12:56.867Z,7988.00
2019-05-29T09:13:48.191Z,8488.00
2019-05-29T09:14:48.318Z,7704.00
2019-05-29T09:15:48.167Z,7172.00
2019-05-29T09:16:48.232Z,6660.00
2019-05-29T09:17:48.158Z,5064.00
2019-05-29T09:18:48.152Z,3596.00
2019-05-29T09:19:48.154Z,7164.00
2019-05-29T09:21:02.037Z,8272.00
2019-05-29T09:21:48.114Z,6760.00
2019-05-29T09:22:48.121Z,5624.00
2019-05-29T09:23:48.124Z,3940.00
2019-05-29T09:24:48.080Z,3320.00
2019-05-29T09:25:48.076Z,3920.00
2019-05-29T09:26:48.058Z,10364.00
2019-05-29T09:27:48.073Z,13408.00
2019-05-29T09:28:48.078Z,3840.00
2019-05-29T09:29:48.043Z,4844.00
2019-05-29T09:30:48.163Z,12728.00
2019-05-29T09:31:48.027Z,25792.00
2019-05-29T09:32:50.966Z,64512.00
2019-05-29T09:33:47.997Z,19168.00
2019-05-29T09:34:47.994Z,59744.00
2019-05-29T09:35:48.125Z,2520.00
2019-05-29T09:36:48.082Z,3624.00
2019-05-29T09:37:47.956Z,2904.00
2019-05-29T09:38:48.179Z,78752.00
2019-05-29T09:39:47.945Z,95968.00
2019-05-29T09:40:47.932Z,89728.00
2019-05-29T09:41:47.924Z,90272.00
2019-05-29T09:42:47.911Z,90752.00
2019-05-29T09:43:58.317Z,89120.00
2019-05-29T09:44:47.898Z,81952.00
2019-05-29T09:45:47.881Z,77632.00
2019-05-29T09:46:47.901Z,76064.00
2019-05-29T09:47:47.866Z,75168.00
2019-05-29T09:48:50.146Z,73216.00
2019-05-29T09:49:47.855Z,73696.00
2019-05-29T09:50:50.599Z,72928.00
2019-05-29T09:51:47.838Z,72864.00
2019-05-29T09:52:47.826Z,74944.00
2019-05-29T09:53:47.916Z,80416.00
2019-05-29T09:54:47.830Z,84448.00
2019-05-29T09:55:47.817Z,84320.00
2019-05-29T09:56:47.950Z,82368.00
2019-05-29T09:57:47.811Z,79360.00
2019-05-29T09:58:47.801Z,79680.00
2019-05-29T09:59:47.798Z,71264.00
2019-05-29T10:00:47.812Z,74816.00
2019-05-29T10:01:47.794Z,74720.00
2019-05-29T10:02:47.909Z,75840.00
2019-05-29T10:03:47.771Z,72576.00
2019-05-29T10:04:47.765Z,82272.00
2019-05-29T10:05:47.764Z,84288.00
2019-05-29T10:06:47.769Z,89504.00
2019-05-29T10:07:47.765Z,86240.00
2019-05-29T10:08:47.788Z,83520.00
2019-05-29T10:09:47.754Z,87264.00
2019-05-29T10:10:47.775Z,88736.00
2019-05-29T10:11:47.750Z,81472.00
2019-05-29T10:12:47.739Z,20384.00
2019-05-29T10:13:47.885Z,88480.00
2019-05-29T10:14:51.217Z,110144.00
2019-05-29T10:15:47.744Z,107200.00
2019-05-29T10:16:47.738Z,96160.00
2019-05-29T10:17:47.744Z,94752.00
2019-05-29T10:18:47.731Z,99648.00
2019-05-29T10:19:47.738Z,107808.00
2019-05-29T10:20:47.732Z,106496.00
2019-05-29T10:21:47.738Z,5488.00
2019-05-29T10:22:47.717Z,6560.00
2019-05-29T10:23:47.757Z,7644.00
2019-05-29T10:24:47.714Z,107904.00
2019-05-29T10:25:47.717Z,118528.00
2019-05-29T10:26:47.725Z,115712.00
2019-05-29T10:27:47.766Z,16928.00
2019-05-29T10:29:02.564Z,5664.00
2019-05-29T10:29:50.266Z,4724.00
2019-05-29T10:30:48.306Z,105792.00
2019-05-29T10:31:49.200Z,99488.00
2019-05-29T10:32:48.188Z,101504.00
2019-05-29T10:33:48.235Z,99808.00
2019-05-29T10:34:48.468Z,95008.00
2019-05-29T10:35:49.691Z,88512.00
2019-05-29T10:36:50.381Z,32992.00
2019-05-29T10:37:48.657Z,11324.00
2019-05-29T10:38:48.658Z,50912.00
2019-05-29T10:39:48.894Z,9604.00
2019-05-29T10:41:00.359Z,105152.00
2019-05-29T10:41:48.545Z,30272.00
2019-05-29T10:42:49.011Z,10852.00
2019-05-29T10:43:49.069Z,4840.00
2019-05-29T10:44:47.656Z,3004.00
2019-05-29T10:45:48.088Z,2732.00
2019-05-29T10:46:48.370Z,2648.00
2019-05-29T10:47:47.630Z,3236.00
2019-05-29T10:48:49.295Z,5180.00
2019-05-29T10:49:47.711Z,6036.00
2019-05-29T10:50:50.446Z,6884.00
2019-05-29T10:52:00.445Z,100064.00
2019-05-29T10:52:47.916Z,108448.00
2019-05-29T10:53:49.629Z,110656.00
2019-05-29T10:54:48.130Z,109184.00
2019-05-29T10:55:48.588Z,106656.00
2019-05-29T10:56:48.787Z,103904.00
2019-05-29T10:57:48.984Z,6444.00
2019-05-29T10:58:52.388Z,105056.00
2019-05-29T10:59:48.514Z,66080.00
2019-05-29T11:00:49.033Z,79648.00
2019-05-29T11:01:47.552Z,6620.00
2019-05-29T11:02:48.124Z,3664.00
2019-05-29T11:03:47.535Z,4560.00
2019-05-29T11:04:51.575Z,11088.00
2019-05-29T11:05:47.565Z,28512.00
2019-05-29T11:06:48.041Z,120352.00
2019-05-29T11:07:47.684Z,84608.00
2019-05-29T11:08:48.019Z,42144.00
2019-05-29T11:09:48.570Z,36000.00
2019-05-29T11:10:47.943Z,88896.00
2019-05-29T11:11:48.453Z,10156.00
2019-05-29T11:12:48.402Z,29920.00
2019-05-29T11:13:48.641Z,6952.00
2019-05-29T11:14:48.509Z,4296.00
2019-05-29T11:15:48.518Z,26912.00
2019-05-29T11:16:48.908Z,4288.00
2019-05-29T11:17:47.474Z,5356.00
2019-05-29T11:18:47.583Z,7696.00
2019-05-29T11:19:47.459Z,5192.00
2019-05-29T11:20:47.576Z,3184.00
2019-05-29T11:21:48.130Z,2692.00
2019-05-29T11:22:47.569Z,2556.00
2019-05-29T11:23:47.712Z,2584.00
2019-05-29T11:24:47.949Z,2724.00
2019-05-29T11:25:47.879Z,2800.00
2019-05-29T11:26:48.383Z,2732.00
2019-05-29T11:27:48.487Z,3268.00
2019-05-29T11:28:48.356Z,12096.00
2019-05-29T11:29:48.734Z,117536.00
2019-05-29T11:30:48.643Z,109568.00
2019-05-29T11:31:48.528Z,99200.00
2019-05-29T11:32:49.906Z,86272.00
2019-05-29T11:33:48.704Z,91936.00
2019-05-29T11:34:47.343Z,102688.00
2019-05-29T11:35:58.290Z,4664.00
2019-05-29T11:36:47.318Z,2248.00
2019-05-29T11:37:47.351Z,2176.00
2019-05-29T11:38:47.307Z,2444.00
2019-05-29T11:39:47.311Z,2468.00
2019-05-29T11:40:47.459Z,2592.00
2019-05-29T11:41:47.290Z,4948.00
2019-05-29T11:42:47.354Z,10948.00
2019-05-29T11:43:47.311Z,4348.00
2019-05-29T11:44:47.271Z,2944.00
2019-05-29T11:45:47.273Z,3024.00
2019-05-29T11:46:47.272Z,4164.00
2019-05-29T11:47:47.261Z,18016.00
2019-05-29T11:48:47.277Z,11764.00
2019-05-29T11:49:47.244Z,3684.00
2019-05-29T11:50:47.266Z,3328.00
2019-05-29T11:51:47.226Z,2824.00
2019-05-29T11:52:47.250Z,2956.00
2019-05-29T11:53:47.214Z,3516.00
2019-05-29T11:54:47.275Z,5268.00
2019-05-29T11:55:47.196Z,7516.00
2019-05-29T11:56:47.195Z,8552.00
2019-05-29T11:57:47.229Z,5100.00
2019-05-29T11:58:47.184Z,5324.00
2019-05-29T11:59:47.214Z,5164.00
2019-05-29T12:00:47.162Z,14880.00
2019-05-29T12:01:50.738Z,28992.00
2019-05-29T12:02:47.150Z,19104.00
2019-05-29T12:04:09.483Z,11716.00
2019-05-29T12:04:47.145Z,3328.00
2019-05-29T12:05:47.269Z,4384.00
2019-05-29T12:06:47.112Z,5648.00
2019-05-29T12:07:47.093Z,2820.00
2019-05-29T12:08:47.103Z,2736.00
2019-05-29T12:09:47.224Z,2724.00
2019-05-29T12:10:47.068Z,2904.00
2019-05-29T12:11:47.054Z,3332.00
2019-05-29T12:12:47.064Z,3108.00
2019-05-29T12:13:47.059Z,2860.00
2019-05-29T12:15:00.277Z,3028.00
2019-05-29T12:15:47.063Z,3068.00
2019-05-29T12:16:47.012Z,3004.00
2019-05-29T12:17:47.019Z,2896.00
2019-05-29T12:18:47.002Z,2876.00
2019-05-29T12:19:46.985Z,2808.00
2019-05-29T12:20:47.009Z,3044.00
2019-05-29T12:21:46.973Z,2744.00
2019-05-29T12:23:10.924Z,2668.00
2019-05-29T12:23:46.946Z,2588.00
2019-05-29T12:24:46.946Z,2572.00
2019-05-29T12:25:46.940Z,2772.00
2019-05-29T12:26:46.922Z,2564.00
2019-05-29T12:27:46.919Z,2572.00
2019-05-29T12:28:46.913Z,2596.00